Terminal Aerodrome Forecast
Issued by NWS Wakefield, VA

Home | Current Version | Previous Version | Text Only | Print | Product List | Glossary On
Versions: 1 2 3 4 5 6 7 8 9 10 11 12 13
000
FTUS41 KAKQ 011100
TAFSBY
TAF
KSBY 011120Z 0112/0212 15005KT P6SM BKN120 OVC250
     FM011500 09006KT P6SM SCT040 OVC100
     FM020000 10005KT P6SM BKN040
     FM020600 03004KT 4SM BR OVC015=

USA.gov is the U.S. government's official web portal to all federal, state and local government web resources and services.